sensor_id;sensor_type;location;lat;lon;timestamp;P1;P2;P0
57411;PMS5003;43247;52.828;-8.980;2024-03-02T00:00:20;6;6;
57411;PMS5003;43247;52.828;-8.980;2024-03-02T00:01:19;6;5;
57411;PMS5003;43247;52.828;-8.980;2024-03-02T00:02:19;6;6;
57411;PMS5003;43247;52.828;-8.980;2024-03-02T00:03:20;7;5;
57411;PMS5003;43247;52.828;-8.980;2024-03-02T00:04:20;8;7;
57411;PMS5003;43247;52.828;-8.980;2024-03-02T00:05:21;3;3;
57411;PMS5003;43247;52.828;-8.980;2024-03-02T00:06:20;5;5;
57411;PMS5003;43247;52.828;-8.980;2024-03-02T00:07:20;8;5;
57411;PMS5003;43247;52.828;-8.980;2024-03-02T00:08:23;5;5;
57411;PMS5003;43247;52.828;-8.980;2024-03-02T00:09:21;6;5;
57411;PMS5003;43247;52.828;-8.980;2024-03-02T00:10:22;5;5;
57411;PMS5003;43247;52.828;-8.980;2024-03-02T00:11:22;4;4;
57411;PMS5003;43247;52.828;-8.980;2024-03-02T00:12:22;6;5;
57411;PMS5003;43247;52.828;-8.980;2024-03-02T00:13:22;5;5;
57411;PMS5003;43247;52.828;-8.980;2024-03-02T00:14:22;6;4;
57411;PMS5003;43247;52.828;-8.980;2024-03-02T00:15:30;3;3;
57411;PMS5003;43247;52.828;-8.980;2024-03-02T00:16:23;6;6;
57411;PMS5003;43247;52.828;-8.980;2024-03-02T00:17:24;4;4;
57411;PMS5003;43247;52.828;-8.980;2024-03-02T00:18:25;6;5;
57411;PMS5003;43247;52.828;-8.980;2024-03-02T00:19:23;3;3;
57411;PMS5003;43247;52.828;-8.980;2024-03-02T00:20:23;5;5;
57411;PMS5003;43247;52.828;-8.980;2024-03-02T00:21:24;6;3;
57411;PMS5003;43247;52.828;-8.980;2024-03-02T00:22:24;4;4;
57411;PMS5003;43247;52.828;-8.980;2024-03-02T00:23:26;7;6;
57411;PMS5003;43247;52.828;-8.980;2024-03-02T00:24:26;4;3;
57411;PMS5003;43247;52.828;-8.980;2024-03-02T00:25:25;5;3;
57411;PMS5003;43247;52.828;-8.980;2024-03-02T00:26:25;4;3;
57411;PMS5003;43247;52.828;-8.980;2024-03-02T00:27:25;5;5;
57411;PMS5003;43247;52.828;-8.980;2024-03-02T00:28:25;4;3;
57411;PMS5003;43247;52.828;-8.980;2024-03-02T00:29:25;6;5;
57411;PMS5003;43247;52.828;-8.980;2024-03-02T00:31:26;4;4;
57411;PMS5003;43247;52.828;-8.980;2024-03-02T00:32:26;8;5;
57411;PMS5003;43247;52.828;-8.980;2024-03-02T00:33:27;8;5;
57411;PMS5003;43247;52.828;-8.980;2024-03-02T00:34:27;6;5;
57411;PMS5003;43247;52.828;-8.980;2024-03-02T00:35:27;4;4;
57411;PMS5003;43247;52.828;-8.980;2024-03-02T00:36:27;6;6;
57411;PMS5003;43247;52.828;-8.980;2024-03-02T00:37:27;5;4;
57411;PMS5003;43247;52.828;-8.980;2024-03-02T00:38:28;5;5;
57411;PMS5003;43247;52.828;-8.980;2024-03-02T00:39:28;4;4;
57411;PMS5003;43247;52.828;-8.980;2024-03-02T00:40:28;2;2;
57411;PMS5003;43247;52.828;-8.980;2024-03-02T00:41:29;3;3;
57411;PMS5003;43247;52.828;-8.980;2024-03-02T00:42:28;4;2;
57411;PMS5003;43247;52.828;-8.980;2024-03-02T00:44:29;5;5;
57411;PMS5003;43247;52.828;-8.980;2024-03-02T00:45:30;3;3;
57411;PMS5003;43247;52.828;-8.980;2024-03-02T00:46:31;4;4;
57411;PMS5003;43247;52.828;-8.980;2024-03-02T00:47:30;1;1;
57411;PMS5003;43247;52.828;-8.980;2024-03-02T00:48:30;3;3;
57411;PMS5003;43247;52.828;-8.980;2024-03-02T00:49:30;4;4;
57411;PMS5003;43247;52.828;-8.980;2024-03-02T00:50:31;6;5;
57411;PMS5003;43247;52.828;-8.980;2024-03-02T00:51:32;2;2;
57411;PMS5003;43247;52.828;-8.980;2024-03-02T00:52:31;4;3;
57411;PMS5003;43247;52.828;-8.980;2024-03-02T00:53:31;3;3;
57411;PMS5003;43247;52.828;-8.980;2024-03-02T00:54:31;4;4;
57411;PMS5003;43247;52.828;-8.980;2024-03-02T00:55:32;3;3;
57411;PMS5003;43247;52.828;-8.980;2024-03-02T00:56:32;4;3;
57411;PMS5003;43247;52.828;-8.980;2024-03-02T00:57:32;4;2;
57411;PMS5003;43247;52.828;-8.980;2024-03-02T00:58:32;6;3;
57411;PMS5003;43247;52.828;-8.980;2024-03-02T00:59:32;4;2;
57411;PMS5003;43247;52.828;-8.980;2024-03-02T01:00:33;3;3;
57411;PMS5003;43247;52.828;-8.980;2024-03-02T01:01:33;1;1;
57411;PMS5003;43247;52.828;-8.980;2024-03-02T01:02:33;6;3;
57411;PMS5003;43247;52.828;-8.980;2024-03-02T01:03:33;2;2;
57411;PMS5003;43247;52.828;-8.980;2024-03-02T01:04:33;3;3;
57411;PMS5003;43247;52.828;-8.980;2024-03-02T01:05:34;2;2;
57411;PMS5003;43247;52.828;-8.980;2024-03-02T01:06:34;3;3;
57411;PMS5003;43247;52.828;-8.980;2024-03-02T01:07:36;4;3;
57411;PMS5003;43247;52.828;-8.980;2024-03-02T01:08:35;3;3;
57411;PMS5003;43247;52.828;-8.980;2024-03-02T01:09:35;2;2;
57411;PMS5003;43247;52.828;-8.980;2024-03-02T01:10:36;4;4;
57411;PMS5003;43247;52.828;-8.980;2024-03-02T01:11:36;5;4;
57411;PMS5003;43247;52.828;-8.980;2024-03-02T01:12:36;2;2;
57411;PMS5003;43247;52.828;-8.980;2024-03-02T01:13:36;6;3;
57411;PMS5003;43247;52.828;-8.980;2024-03-02T01:14:37;4;4;
57411;PMS5003;43247;52.828;-8.980;2024-03-02T01:15:37;3;3;
57411;PMS5003;43247;52.828;-8.980;2024-03-02T01:16:37;4;4;
57411;PMS5003;43247;52.828;-8.980;2024-03-02T01:17:37;6;5;
57411;PMS5003;43247;52.828;-8.980;2024-03-02T01:18:37;7;5;
57411;PMS5003;43247;52.828;-8.980;2024-03-02T01:19:37;6;3;
57411;PMS5003;43247;52.828;-8.980;2024-03-02T01:20:38;7;4;
57411;PMS5003;43247;52.828;-8.980;2024-03-02T01:21:38;4;4;
57411;PMS5003;43247;52.828;-8.980;2024-03-02T01:22:38;7;3;
57411;PMS5003;43247;52.828;-8.980;2024-03-02T01:23:38;4;4;
57411;PMS5003;43247;52.828;-8.980;2024-03-02T01:24:38;5;5;
57411;PMS5003;43247;52.828;-8.980;2024-03-02T01:25:39;3;3;
57411;PMS5003;43247;52.828;-8.980;2024-03-02T01:26:39;4;4;
57411;PMS5003;43247;52.828;-8.980;2024-03-02T01:27:39;3;3;
57411;PMS5003;43247;52.828;-8.980;2024-03-02T01:28:39;5;5;
57411;PMS5003;43247;52.828;-8.980;2024-03-02T01:29:39;3;3;
57411;PMS5003;43247;52.828;-8.980;2024-03-02T01:30:40;5;5;
57411;PMS5003;43247;52.828;-8.980;2024-03-02T01:31:40;4;4;
57411;PMS5003;43247;52.828;-8.980;2024-03-02T01:32:41;6;6;
57411;PMS5003;43247;52.828;-8.980;2024-03-02T01:33:41;5;3;
57411;PMS5003;43247;52.828;-8.980;2024-03-02T01:34:41;2;2;
57411;PMS5003;43247;52.828;-8.980;2024-03-02T01:35:41;3;3;
57411;PMS5003;43247;52.828;-8.980;2024-03-02T01:36:41;6;4;
57411;PMS5003;43247;52.828;-8.980;2024-03-02T01:37:42;4;4;
57411;PMS5003;43247;52.828;-8.980;2024-03-02T01:38:42;4;3;
57411;PMS5003;43247;52.828;-8.980;2024-03-02T01:39:42;6;5;
57411;PMS5003;43247;52.828;-8.980;2024-03-02T01:40:42;5;5;
57411;PMS5003;43247;52.828;-8.980;2024-03-02T01:41:43;5;4;
57411;PMS5003;43247;52.828;-8.980;2024-03-02T01:42:43;3;3;
57411;PMS5003;43247;52.828;-8.980;2024-03-02T01:43:44;7;7;
57411;PMS5003;43247;52.828;-8.980;2024-03-02T01:44:45;3;3;
57411;PMS5003;43247;52.828;-8.980;2024-03-02T01:45:45;5;4;
57411;PMS5003;43247;52.828;-8.980;2024-03-02T01:46:45;8;4;
57411;PMS5003;43247;52.828;-8.980;2024-03-02T01:47:45;5;3;
57411;PMS5003;43247;52.828;-8.980;2024-03-02T01:48:45;6;2;
57411;PMS5003;43247;52.828;-8.980;2024-03-02T01:49:46;2;2;
57411;PMS5003;43247;52.828;-8.980;2024-03-02T01:50:46;4;2;
57411;PMS5003;43247;52.828;-8.980;2024-03-02T01:51:47;5;3;
57411;PMS5003;43247;52.828;-8.980;2024-03-02T01:52:47;3;3;
57411;PMS5003;43247;52.828;-8.980;2024-03-02T01:53:47;5;4;
57411;PMS5003;43247;52.828;-8.980;2024-03-02T01:54:47;5;5;
57411;PMS5003;43247;52.828;-8.980;2024-03-02T01:55:47;3;3;
57411;PMS5003;43247;52.828;-8.980;2024-03-02T01:56:48;3;3;
57411;PMS5003;43247;52.828;-8.980;2024-03-02T01:57:48;3;3;
57411;PMS5003;43247;52.828;-8.980;2024-03-02T01:58:48;2;2;
57411;PMS5003;43247;52.828;-8.980;2024-03-02T01:59:48;4;4;
57411;PMS5003;43247;52.828;-8.980;2024-03-02T02:00:49;3;3;
57411;PMS5003;43247;52.828;-8.980;2024-03-02T02:01:49;5;4;
57411;PMS5003;43247;52.828;-8.980;2024-03-02T02:02:49;5;5;
57411;PMS5003;43247;52.828;-8.980;2024-03-02T02:03:49;5;4;
57411;PMS5003;43247;52.828;-8.980;2024-03-02T02:04:49;5;5;
57411;PMS5003;43247;52.828;-8.980;2024-03-02T02:05:50;3;2;
57411;PMS5003;43247;52.828;-8.980;2024-03-02T02:06:50;3;3;
57411;PMS5003;43247;52.828;-8.980;2024-03-02T02:07:50;4;4;
57411;PMS5003;43247;52.828;-8.980;2024-03-02T02:08:50;4;4;
57411;PMS5003;43247;52.828;-8.980;2024-03-02T02:09:50;4;4;
57411;PMS5003;43247;52.828;-8.980;2024-03-02T02:10:51;5;3;
57411;PMS5003;43247;52.828;-8.980;2024-03-02T02:11:51;3;3;
57411;PMS5003;43247;52.828;-8.980;2024-03-02T02:12:51;1;1;
57411;PMS5003;43247;52.828;-8.980;2024-03-02T02:13:51;5;4;
57411;PMS5003;43247;52.828;-8.980;2024-03-02T02:14:51;3;3;
57411;PMS5003;43247;52.828;-8.980;2024-03-02T02:15:52;3;3;
57411;PMS5003;43247;52.828;-8.980;2024-03-02T02:16:52;3;3;
57411;PMS5003;43247;52.828;-8.980;2024-03-02T02:17:52;5;3;
57411;PMS5003;43247;52.828;-8.980;2024-03-02T02:18:52;3;2;
57411;PMS5003;43247;52.828;-8.980;2024-03-02T02:19:52;2;2;
57411;PMS5003;43247;52.828;-8.980;2024-03-02T02:20:53;2;2;
57411;PMS5003;43247;52.828;-8.980;2024-03-02T02:21:53;4;3;
57411;PMS5003;43247;52.828;-8.980;2024-03-02T02:22:54;4;4;
57411;PMS5003;43247;52.828;-8.980;2024-03-02T02:23:53;2;2;
57411;PMS5003;43247;52.828;-8.980;2024-03-02T02:24:53;1;1;
57411;PMS5003;43247;52.828;-8.980;2024-03-02T02:25:54;2;2;
57411;PMS5003;43247;52.828;-8.980;2024-03-02T02:26:54;5;3;
57411;PMS5003;43247;52.828;-8.980;2024-03-02T02:27:55;2;2;
57411;PMS5003;43247;52.828;-8.980;2024-03-02T02:28:55;4;2;
57411;PMS5003;43247;52.828;-8.980;2024-03-02T02:29:55;1;1;
57411;PMS5003;43247;52.828;-8.980;2024-03-02T02:30:55;2;2;
57411;PMS5003;43247;52.828;-8.980;2024-03-02T02:31:55;2;2;
57411;PMS5003;43247;52.828;-8.980;2024-03-02T02:32:56;4;2;
57411;PMS5003;43247;52.828;-8.980;2024-03-02T02:33:56;3;1;
57411;PMS5003;43247;52.828;-8.980;2024-03-02T02:34:56;6;6;
57411;PMS5003;43247;52.828;-8.980;2024-03-02T02:35:57;5;4;
57411;PMS5003;43247;52.828;-8.980;2024-03-02T02:36:57;2;2;
57411;PMS5003;43247;52.828;-8.980;2024-03-02T02:37:57;2;2;
57411;PMS5003;43247;52.828;-8.980;2024-03-02T02:38:58;5;3;
57411;PMS5003;43247;52.828;-8.980;2024-03-02T02:39:58;2;2;
57411;PMS5003;43247;52.828;-8.980;2024-03-02T02:40:58;5;3;
57411;PMS5003;43247;52.828;-8.980;2024-03-02T02:41:59;3;3;
57411;PMS5003;43247;52.828;-8.980;2024-03-02T02:42:59;7;3;
57411;PMS5003;43247;52.828;-8.980;2024-03-02T02:43:59;2;2;
57411;PMS5003;43247;52.828;-8.980;2024-03-02T02:44:59;4;3;
57411;PMS5003;43247;52.828;-8.980;2024-03-02T02:45:59;1;1;
57411;PMS5003;43247;52.828;-8.980;2024-03-02T02:47:00;4;3;
57411;PMS5003;43247;52.828;-8.980;2024-03-02T02:48:00;2;2;
57411;PMS5003;43247;52.828;-8.980;2024-03-02T02:49:00;3;2;
57411;PMS5003;43247;52.828;-8.980;2024-03-02T02:50:00;2;2;
57411;PMS5003;43247;52.828;-8.980;2024-03-02T02:51:00;3;2;
57411;PMS5003;43247;52.828;-8.980;2024-03-02T02:52:01;3;2;
57411;PMS5003;43247;52.828;-8.980;2024-03-02T02:53:01;1;1;
57411;PMS5003;43247;52.828;-8.980;2024-03-02T02:54:01;2;2;
57411;PMS5003;43247;52.828;-8.980;2024-03-02T02:55:03;3;2;
57411;PMS5003;43247;52.828;-8.980;2024-03-02T02:56:01;4;3;
57411;PMS5003;43247;52.828;-8.980;2024-03-02T02:57:02;1;1;
57411;PMS5003;43247;52.828;-8.980;2024-03-02T02:58:02;3;3;
57411;PMS5003;43247;52.828;-8.980;2024-03-02T02:59:02;3;1;
57411;PMS5003;43247;52.828;-8.980;2024-03-02T03:00:04;1;1;
57411;PMS5003;43247;52.828;-8.980;2024-03-02T03:01:03;3;3;
57411;PMS5003;43247;52.828;-8.980;2024-03-02T03:02:04;4;3;
57411;PMS5003;43247;52.828;-8.980;2024-03-02T03:03:04;1;1;
57411;PMS5003;43247;52.828;-8.980;2024-03-02T03:04:04;1;0;
57411;PMS5003;43247;52.828;-8.980;2024-03-02T03:05:04;2;2;
57411;PMS5003;43247;52.828;-8.980;2024-03-02T03:06:04;3;3;
57411;PMS5003;43247;52.828;-8.980;2024-03-02T03:07:04;2;2;
57411;PMS5003;43247;52.828;-8.980;2024-03-02T03:08:05;2;2;
57411;PMS5003;43247;52.828;-8.980;2024-03-02T03:09:05;3;1;
57411;PMS5003;43247;52.828;-8.980;2024-03-02T03:10:06;1;1;
57411;PMS5003;43247;52.828;-8.980;2024-03-02T03:11:05;1;1;
57411;PMS5003;43247;52.828;-8.980;2024-03-02T03:12:06;1;1;
57411;PMS5003;43247;52.828;-8.980;2024-03-02T03:13:06;2;2;
57411;PMS5003;43247;52.828;-8.980;2024-03-02T03:14:06;1;1;
57411;PMS5003;43247;52.828;-8.980;2024-03-02T03:15:06;0;0;
57411;PMS5003;43247;52.828;-8.980;2024-03-02T03:16:06;4;2;
57411;PMS5003;43247;52.828;-8.980;2024-03-02T03:17:07;1;1;
57411;PMS5003;43247;52.828;-8.980;2024-03-02T03:18:07;2;0;
57411;PMS5003;43247;52.828;-8.980;2024-03-02T03:19:07;2;1;
57411;PMS5003;43247;52.828;-8.980;2024-03-02T03:20:07;1;1;
57411;PMS5003;43247;52.828;-8.980;2024-03-02T03:21:07;2;2;
57411;PMS5003;43247;52.828;-8.980;2024-03-02T03:22:07;2;1;
57411;PMS5003;43247;52.828;-8.980;2024-03-02T03:23:08;0;0;
57411;PMS5003;43247;52.828;-8.980;2024-03-02T03:24:08;3;3;
57411;PMS5003;43247;52.828;-8.980;2024-03-02T03:25:09;1;1;
57411;PMS5003;43247;52.828;-8.980;2024-03-02T03:26:09;1;1;
57411;PMS5003;43247;52.828;-8.980;2024-03-02T03:27:09;2;1;
57411;PMS5003;43247;52.828;-8.980;2024-03-02T03:28:09;0;0;
57411;PMS5003;43247;52.828;-8.980;2024-03-02T03:29:09;3;1;
57411;PMS5003;43247;52.828;-8.980;2024-03-02T03:30:10;0;0;
57411;PMS5003;43247;52.828;-8.980;2024-03-02T03:31:10;2;1;
57411;PMS5003;43247;52.828;-8.980;2024-03-02T03:32:10;1;1;
57411;PMS5003;43247;52.828;-8.980;2024-03-02T03:33:10;0;0;
57411;PMS5003;43247;52.828;-8.980;2024-03-02T03:34:10;1;1;
57411;PMS5003;43247;52.828;-8.980;2024-03-02T03:35:11;1;0;
57411;PMS5003;43247;52.828;-8.980;2024-03-02T03:36:11;1;1;
57411;PMS5003;43247;52.828;-8.980;2024-03-02T03:37:11;2;2;
57411;PMS5003;43247;52.828;-8.980;2024-03-02T03:38:11;1;1;
57411;PMS5003;43247;52.828;-8.980;2024-03-02T03:39:11;1;1;
57411;PMS5003;43247;52.828;-8.980;2024-03-02T03:40:12;0;0;
57411;PMS5003;43247;52.828;-8.980;2024-03-02T03:41:12;0;0;
57411;PMS5003;43247;52.828;-8.980;2024-03-02T03:42:12;2;1;
57411;PMS5003;43247;52.828;-8.980;2024-03-02T03:43:12;2;1;
57411;PMS5003;43247;52.828;-8.980;2024-03-02T03:44:12;1;1;
57411;PMS5003;43247;52.828;-8.980;2024-03-02T03:45:13;2;0;
57411;PMS5003;43247;52.828;-8.980;2024-03-02T03:46:13;0;0;
57411;PMS5003;43247;52.828;-8.980;2024-03-02T03:47:13;0;0;
57411;PMS5003;43247;52.828;-8.980;2024-03-02T03:48:13;0;0;
57411;PMS5003;43247;52.828;-8.980;2024-03-02T03:49:13;3;2;
57411;PMS5003;43247;52.828;-8.980;2024-03-02T03:50:14;1;1;
57411;PMS5003;43247;52.828;-8.980;2024-03-02T03:51:14;1;1;
57411;PMS5003;43247;52.828;-8.980;2024-03-02T03:52:14;0;0;
57411;PMS5003;43247;52.828;-8.980;2024-03-02T03:53:14;2;1;
57411;PMS5003;43247;52.828;-8.980;2024-03-02T03:54:14;2;0;
57411;PMS5003;43247;52.828;-8.980;2024-03-02T03:55:15;1;1;
57411;PMS5003;43247;52.828;-8.980;2024-03-02T03:56:15;3;1;
57411;PMS5003;43247;52.828;-8.980;2024-03-02T03:57:15;1;1;
57411;PMS5003;43247;52.828;-8.980;2024-03-02T03:58:15;1;1;
57411;PMS5003;43247;52.828;-8.980;2024-03-02T03:59:15;1;0;
57411;PMS5003;43247;52.828;-8.980;2024-03-02T04:00:16;5;5;
57411;PMS5003;43247;52.828;-8.980;2024-03-02T04:01:16;2;2;
57411;PMS5003;43247;52.828;-8.980;2024-03-02T04:02:17;1;1;
57411;PMS5003;43247;52.828;-8.980;2024-03-02T04:03:17;1;1;
57411;PMS5003;43247;52.828;-8.980;2024-03-02T04:04:17;0;0;
57411;PMS5003;43247;52.828;-8.980;2024-03-02T04:05:17;0;0;
57411;PMS5003;43247;52.828;-8.980;2024-03-02T04:06:17;2;0;
57411;PMS5003;43247;52.828;-8.980;2024-03-02T04:07:17;0;0;
57411;PMS5003;43247;52.828;-8.980;2024-03-02T04:08:18;1;1;
57411;PMS5003;43247;52.828;-8.980;2024-03-02T04:09:18;3;1;
57411;PMS5003;43247;52.828;-8.980;2024-03-02T04:10:18;0;0;
57411;PMS5003;43247;52.828;-8.980;2024-03-02T04:11:18;1;1;
57411;PMS5003;43247;52.828;-8.980;2024-03-02T04:12:19;0;0;
57411;PMS5003;43247;52.828;-8.980;2024-03-02T04:13:19;1;1;
57411;PMS5003;43247;52.828;-8.980;2024-03-02T04:14:19;0;0;
57411;PMS5003;43247;52.828;-8.980;2024-03-02T04:15:19;1;0;
57411;PMS5003;43247;52.828;-8.980;2024-03-02T04:16:19;2;0;
57411;PMS5003;43247;52.828;-8.980;2024-03-02T04:17:20;0;0;
57411;PMS5003;43247;52.828;-8.980;2024-03-02T04:18:20;0;0;
57411;PMS5003;43247;52.828;-8.980;2024-03-02T04:19:20;0;0;
57411;PMS5003;43247;52.828;-8.980;2024-03-02T04:20:20;5;4;
57411;PMS5003;43247;52.828;-8.980;2024-03-02T04:21:21;0;0;
57411;PMS5003;43247;52.828;-8.980;2024-03-02T04:22:21;0;0;
57411;PMS5003;43247;52.828;-8.980;2024-03-02T04:23:21;1;1;
57411;PMS5003;43247;52.828;-8.980;2024-03-02T04:24:21;0;0;
57411;PMS5003;43247;52.828;-8.980;2024-03-02T04:25:22;1;1;
57411;PMS5003;43247;52.828;-8.980;2024-03-02T04:26:22;1;1;
57411;PMS5003;43247;52.828;-8.980;2024-03-02T04:27:22;1;1;
57411;PMS5003;43247;52.828;-8.980;2024-03-02T04:28:22;1;0;
57411;PMS5003;43247;52.828;-8.980;2024-03-02T04:29:22;0;0;
57411;PMS5003;43247;52.828;-8.980;2024-03-02T04:30:23;0;0;
57411;PMS5003;43247;52.828;-8.980;2024-03-02T04:31:23;1;1;
57411;PMS5003;43247;52.828;-8.980;2024-03-02T04:32:23;0;0;
57411;PMS5003;43247;52.828;-8.980;2024-03-02T04:33:23;1;1;
57411;PMS5003;43247;52.828;-8.980;2024-03-02T04:34:23;1;1;
57411;PMS5003;43247;52.828;-8.980;2024-03-02T04:35:24;0;0;
57411;PMS5003;43247;52.828;-8.980;2024-03-02T04:36:24;0;0;
57411;PMS5003;43247;52.828;-8.980;2024-03-02T04:37:24;0;0;
57411;PMS5003;43247;52.828;-8.980;2024-03-02T04:38:25;0;0;
57411;PMS5003;43247;52.828;-8.980;2024-03-02T04:39:25;0;0;
57411;PMS5003;43247;52.828;-8.980;2024-03-02T04:40:25;0;0;
57411;PMS5003;43247;52.828;-8.980;2024-03-02T04:41:25;1;0;
57411;PMS5003;43247;52.828;-8.980;2024-03-02T04:42:26;0;0;
57411;PMS5003;43247;52.828;-8.980;2024-03-02T04:43:26;0;0;
57411;PMS5003;43247;52.828;-8.980;2024-03-02T04:44:26;1;1;
57411;PMS5003;43247;52.828;-8.980;2024-03-02T04:45:26;0;0;
57411;PMS5003;43247;52.828;-8.980;2024-03-02T04:46:26;1;0;
57411;PMS5003;43247;52.828;-8.980;2024-03-02T04:47:27;0;0;
57411;PMS5003;43247;52.828;-8.980;2024-03-02T04:48:27;0;0;
57411;PMS5003;43247;52.828;-8.980;2024-03-02T04:49:27;0;0;
57411;PMS5003;43247;52.828;-8.980;2024-03-02T04:50:27;0;0;
57411;PMS5003;43247;52.828;-8.980;2024-03-02T04:51:27;0;0;
57411;PMS5003;43247;52.828;-8.980;2024-03-02T04:52:27;0;0;
57411;PMS5003;43247;52.828;-8.980;2024-03-02T04:53:28;1;1;
57411;PMS5003;43247;52.828;-8.980;2024-03-02T04:54:28;0;0;
57411;PMS5003;43247;52.828;-8.980;2024-03-02T04:55:28;1;1;
57411;PMS5003;43247;52.828;-8.980;2024-03-02T04:56:28;0;0;
57411;PMS5003;43247;52.828;-8.980;2024-03-02T04:57:28;0;0;
57411;PMS5003;43247;52.828;-8.980;2024-03-02T04:58:29;0;0;
57411;PMS5003;43247;52.828;-8.980;2024-03-02T04:59:29;2;0;
57411;PMS5003;43247;52.828;-8.980;2024-03-02T05:00:29;0;0;
57411;PMS5003;43247;52.828;-8.980;2024-03-02T05:01:29;0;0;
57411;PMS5003;43247;52.828;-8.980;2024-03-02T05:02:29;0;0;
57411;PMS5003;43247;52.828;-8.980;2024-03-02T05:03:30;0;0;
57411;PMS5003;43247;52.828;-8.980;2024-03-02T05:04:30;1;0;
57411;PMS5003;43247;52.828;-8.980;2024-03-02T05:05:30;0;0;
57411;PMS5003;43247;52.828;-8.980;2024-03-02T05:06:30;0;0;
57411;PMS5003;43247;52.828;-8.980;2024-03-02T05:07:30;0;0;
57411;PMS5003;43247;52.828;-8.980;2024-03-02T05:08:31;0;0;
57411;PMS5003;43247;52.828;-8.980;2024-03-02T05:09:31;1;1;
57411;PMS5003;43247;52.828;-8.980;2024-03-02T05:10:31;0;0;
57411;PMS5003;43247;52.828;-8.980;2024-03-02T05:11:31;0;0;
57411;PMS5003;43247;52.828;-8.980;2024-03-02T05:12:31;1;1;
57411;PMS5003;43247;52.828;-8.980;2024-03-02T05:13:32;1;0;
57411;PMS5003;43247;52.828;-8.980;2024-03-02T05:14:32;2;1;
57411;PMS5003;43247;52.828;-8.980;2024-03-02T05:15:32;0;0;
57411;PMS5003;43247;52.828;-8.980;2024-03-02T05:16:32;0;0;
57411;PMS5003;43247;52.828;-8.980;2024-03-02T05:17:32;0;0;
57411;PMS5003;43247;52.828;-8.980;2024-03-02T05:18:33;0;0;
57411;PMS5003;43247;52.828;-8.980;2024-03-02T05:19:33;0;0;
57411;PMS5003;43247;52.828;-8.980;2024-03-02T05:20:33;1;1;
57411;PMS5003;43247;52.828;-8.980;2024-03-02T05:21:33;1;1;
57411;PMS5003;43247;52.828;-8.980;2024-03-02T05:22:33;1;0;
57411;PMS5003;43247;52.828;-8.980;2024-03-02T05:23:34;0;0;
57411;PMS5003;43247;52.828;-8.980;2024-03-02T05:24:34;0;0;
57411;PMS5003;43247;52.828;-8.980;2024-03-02T05:25:34;0;0;
57411;PMS5003;43247;52.828;-8.980;2024-03-02T05:26:34;1;1;
57411;PMS5003;43247;52.828;-8.980;2024-03-02T05:27:34;1;1;
57411;PMS5003;43247;52.828;-8.980;2024-03-02T05:28:36;0;0;
57411;PMS5003;43247;52.828;-8.980;2024-03-02T05:29:35;0;0;
57411;PMS5003;43247;52.828;-8.980;2024-03-02T05:30:35;1;1;
57411;PMS5003;43247;52.828;-8.980;2024-03-02T05:31:35;1;1;
57411;PMS5003;43247;52.828;-8.980;2024-03-02T05:32:35;0;0;
57411;PMS5003;43247;52.828;-8.980;2024-03-02T05:33:37;0;0;
57411;PMS5003;43247;52.828;-8.980;2024-03-02T05:34:36;1;0;
57411;PMS5003;43247;52.828;-8.980;2024-03-02T05:35:36;0;0;
57411;PMS5003;43247;52.828;-8.980;2024-03-02T05:36:36;0;0;
57411;PMS5003;43247;52.828;-8.980;2024-03-02T05:37:36;1;1;
57411;PMS5003;43247;52.828;-8.980;2024-03-02T05:38:37;0;0;
57411;PMS5003;43247;52.828;-8.980;2024-03-02T05:39:37;1;0;
57411;PMS5003;43247;52.828;-8.980;2024-03-02T05:40:37;0;0;
57411;PMS5003;43247;52.828;-8.980;2024-03-02T05:41:37;0;0;
57411;PMS5003;43247;52.828;-8.980;2024-03-02T05:42:37;3;1;
57411;PMS5003;43247;52.828;-8.980;2024-03-02T05:43:38;0;0;
57411;PMS5003;43247;52.828;-8.980;2024-03-02T05:44:38;0;0;
57411;PMS5003;43247;52.828;-8.980;2024-03-02T05:45:38;0;0;
57411;PMS5003;43247;52.828;-8.980;2024-03-02T05:46:38;1;1;
57411;PMS5003;43247;52.828;-8.980;2024-03-02T05:47:38;0;0;
57411;PMS5003;43247;52.828;-8.980;2024-03-02T05:48:39;1;0;
57411;PMS5003;43247;52.828;-8.980;2024-03-02T05:49:39;1;1;
57411;PMS5003;43247;52.828;-8.980;2024-03-02T05:50:39;0;0;
57411;PMS5003;43247;52.828;-8.980;2024-03-02T05:51:39;0;0;
57411;PMS5003;43247;52.828;-8.980;2024-03-02T05:52:39;1;0;
57411;PMS5003;43247;52.828;-8.980;2024-03-02T05:53:40;0;0;
57411;PMS5003;43247;52.828;-8.980;2024-03-02T05:54:40;1;1;
57411;PMS5003;43247;52.828;-8.980;2024-03-02T05:55:40;1;1;
57411;PMS5003;43247;52.828;-8.980;2024-03-02T05:56:40;0;0;
57411;PMS5003;43247;52.828;-8.980;2024-03-02T05:57:40;0;0;
57411;PMS5003;43247;52.828;-8.980;2024-03-02T05:58:41;0;0;
57411;PMS5003;43247;52.828;-8.980;2024-03-02T05:59:41;0;0;
57411;PMS5003;43247;52.828;-8.980;2024-03-02T06:00:41;0;0;
57411;PMS5003;43247;52.828;-8.980;2024-03-02T06:01:41;1;1;
57411;PMS5003;43247;52.828;-8.980;2024-03-02T06:02:41;0;0;
57411;PMS5003;43247;52.828;-8.980;2024-03-02T06:03:41;0;0;
57411;PMS5003;43247;52.828;-8.980;2024-03-02T06:04:42;0;0;
57411;PMS5003;43247;52.828;-8.980;2024-03-02T06:05:42;0;0;
57411;PMS5003;43247;52.828;-8.980;2024-03-02T06:06:42;0;0;
57411;PMS5003;43247;52.828;-8.980;2024-03-02T06:07:42;1;1;
57411;PMS5003;43247;52.828;-8.980;2024-03-02T06:08:42;0;0;
57411;PMS5003;43247;52.828;-8.980;2024-03-02T06:09:43;0;0;
57411;PMS5003;43247;52.828;-8.980;2024-03-02T06:10:43;0;0;
57411;PMS5003;43247;52.828;-8.980;2024-03-02T06:11:43;2;1;
57411;PMS5003;43247;52.828;-8.980;2024-03-02T06:12:43;1;0;
57411;PMS5003;43247;52.828;-8.980;2024-03-02T06:13:43;0;0;
57411;PMS5003;43247;52.828;-8.980;2024-03-02T06:14:44;0;0;
57411;PMS5003;43247;52.828;-8.980;2024-03-02T06:15:44;1;1;
57411;PMS5003;43247;52.828;-8.980;2024-03-02T06:16:44;0;0;
57411;PMS5003;43247;52.828;-8.980;2024-03-02T06:17:44;0;0;
57411;PMS5003;43247;52.828;-8.980;2024-03-02T06:18:44;2;1;
57411;PMS5003;43247;52.828;-8.980;2024-03-02T06:19:45;0;0;
57411;PMS5003;43247;52.828;-8.980;2024-03-02T06:20:45;1;1;
57411;PMS5003;43247;52.828;-8.980;2024-03-02T06:21:45;4;1;
57411;PMS5003;43247;52.828;-8.980;2024-03-02T06:22:45;1;0;
57411;PMS5003;43247;52.828;-8.980;2024-03-02T06:23:46;1;1;
57411;PMS5003;43247;52.828;-8.980;2024-03-02T06:24:46;0;0;
57411;PMS5003;43247;52.828;-8.980;2024-03-02T06:25:46;0;0;
57411;PMS5003;43247;52.828;-8.980;2024-03-02T06:26:46;1;1;
57411;PMS5003;43247;52.828;-8.980;2024-03-02T06:27:46;0;0;
57411;PMS5003;43247;52.828;-8.980;2024-03-02T06:28:46;0;0;
57411;PMS5003;43247;52.828;-8.980;2024-03-02T06:29:47;0;0;
57411;PMS5003;43247;52.828;-8.980;2024-03-02T06:30:47;0;0;
57411;PMS5003;43247;52.828;-8.980;2024-03-02T06:31:47;1;1;
57411;PMS5003;43247;52.828;-8.980;2024-03-02T06:32:47;0;0;
57411;PMS5003;43247;52.828;-8.980;2024-03-02T06:33:47;1;1;
57411;PMS5003;43247;52.828;-8.980;2024-03-02T06:34:48;1;1;
57411;PMS5003;43247;52.828;-8.980;2024-03-02T06:35:48;0;0;
57411;PMS5003;43247;52.828;-8.980;2024-03-02T06:36:48;0;0;
57411;PMS5003;43247;52.828;-8.980;2024-03-02T06:37:48;0;0;
57411;PMS5003;43247;52.828;-8.980;2024-03-02T06:38:48;0;0;
57411;PMS5003;43247;52.828;-8.980;2024-03-02T06:39:49;0;0;
57411;PMS5003;43247;52.828;-8.980;2024-03-02T06:40:49;1;1;
57411;PMS5003;43247;52.828;-8.980;2024-03-02T06:41:49;1;0;
57411;PMS5003;43247;52.828;-8.980;2024-03-02T06:42:49;0;0;
57411;PMS5003;43247;52.828;-8.980;2024-03-02T06:43:49;1;1;
57411;PMS5003;43247;52.828;-8.980;2024-03-02T06:44:50;1;1;
57411;PMS5003;43247;52.828;-8.980;2024-03-02T06:45:50;1;1;
57411;PMS5003;43247;52.828;-8.980;2024-03-02T06:46:50;0;0;
57411;PMS5003;43247;52.828;-8.980;2024-03-02T06:47:50;1;1;